createdAt,value
2022-11-01T00:01:50.210Z,2.17
2022-11-01T00:04:17.454Z,3.70
2022-11-01T00:06:43.808Z,3.35
2022-11-01T00:09:10.389Z,2.90
2022-11-01T00:11:37.000Z,2.63
2022-11-01T00:14:03.563Z,3.10
2022-11-01T00:16:30.521Z,1.50
2022-11-01T00:18:57.448Z,2.95
2022-11-01T00:21:23.862Z,1.73
2022-11-01T00:23:50.364Z,1.80
2022-11-01T00:26:20.197Z,2.40
2022-11-01T00:28:47.255Z,5.32
2022-11-01T00:31:15.037Z,5.50
2022-11-01T00:33:41.842Z,1.42
2022-11-01T00:36:09.098Z,5.72
2022-11-01T00:38:36.168Z,1.95
2022-11-01T00:41:04.089Z,4.05
2022-11-01T00:43:31.691Z,1.52
2022-11-01T00:45:58.240Z,1.42
2022-11-01T00:48:24.975Z,1.10
2022-11-01T00:50:52.406Z,2.35
2022-11-01T00:53:19.042Z,2.38
2022-11-01T00:55:45.680Z,2.83
2022-11-01T00:58:12.133Z,1.92
2022-11-01T01:00:38.626Z,3.75
2022-11-01T01:03:05.897Z,2.30
2022-11-01T01:05:34.147Z,4.18
2022-11-01T01:08:00.659Z,1.95
2022-11-01T01:10:27.175Z,2.72
2022-11-01T01:12:53.857Z,6.60
2022-11-01T01:15:20.297Z,1.95
2022-11-01T01:17:46.828Z,3.25
2022-11-01T01:20:14.232Z,2.05
2022-11-01T01:22:41.564Z,2.80
2022-11-01T01:25:08.823Z,3.15
2022-11-01T01:27:35.213Z,1.92
2022-11-01T01:30:01.592Z,4.80
2022-11-01T01:32:28.011Z,4.03
2022-11-01T01:34:54.449Z,2.78
2022-11-01T01:37:20.901Z,2.60
2022-11-01T01:39:47.632Z,1.52
2022-11-01T01:42:34.122Z,0.55
2022-11-01T01:45:16.751Z,1.75
2022-11-01T01:47:46.777Z,2.83
2022-11-01T01:50:14.879Z,2.50
2022-11-01T01:52:53.087Z,2.15
2022-11-01T01:55:27.665Z,3.80
2022-11-01T01:57:56.320Z,1.55
2022-11-01T02:00:22.687Z,3.40
2022-11-01T02:02:50.823Z,2.08
2022-11-01T02:05:24.080Z,2.42
2022-11-01T02:07:50.504Z,1.33
2022-11-01T02:10:17.274Z,2.58
2022-11-01T02:12:46.662Z,1.63
2022-11-01T02:15:13.700Z,1.58
2022-11-01T02:17:59.903Z,3.25
2022-11-01T02:20:45.325Z,2.45
2022-11-01T02:23:28.419Z,1.70
2022-11-01T02:25:57.725Z,6.50
2022-11-01T02:28:53.900Z,1.65
2022-11-01T02:31:35.159Z,2.85
2022-11-01T02:34:09.699Z,2.08
2022-11-01T02:36:48.452Z,4.13
2022-11-01T02:39:23.315Z,2.03
2022-11-01T02:41:57.123Z,2.13
2022-11-01T02:44:27.778Z,2.67
2022-11-01T02:47:02.083Z,3.50
2022-11-01T02:49:39.662Z,4.20
2022-11-01T02:52:10.140Z,2.30
2022-11-01T02:54:43.412Z,1.95
2022-11-01T02:57:21.912Z,2.55
2022-11-01T02:59:48.914Z,1.40
2022-11-01T03:02:41.760Z,1.00
2022-11-01T03:05:16.643Z,2.03
2022-11-01T03:07:50.425Z,2.67
2022-11-01T03:10:20.549Z,2.97
2022-11-01T03:12:53.721Z,4.15
2022-11-01T03:18:13.118Z,5.13
2022-11-01T03:20:59.198Z,2.38
2022-11-01T03:23:43.282Z,3.25
2022-11-01T03:26:13.562Z,2.97
2022-11-01T03:28:44.703Z,2.38
2022-11-01T03:31:19.828Z,2.97
2022-11-01T03:33:53.299Z,1.73
2022-11-01T03:36:22.420Z,0.90
2022-11-01T03:38:57.660Z,2.42
2022-11-01T03:41:27.353Z,2.40
2022-11-01T03:43:54.530Z,3.08
2022-11-01T03:46:21.120Z,2.50
2022-11-01T03:48:47.496Z,0.90
2022-11-01T03:51:13.848Z,1.15
2022-11-01T03:53:40.234Z,2.47
2022-11-01T03:56:07.391Z,4.65
2022-11-01T03:58:44.156Z,2.13
2022-11-01T04:01:13.163Z,2.05
2022-11-01T04:03:40.131Z,2.70
2022-11-01T04:06:06.824Z,2.65
2022-11-01T04:08:33.388Z,1.42
2022-11-01T04:11:00.312Z,1.83
2022-11-01T04:13:26.726Z,2.80
2022-11-01T04:16:11.503Z,1.52
2022-11-01T04:18:56.197Z,2.10
2022-11-01T04:21:25.389Z,2.13
2022-11-01T04:23:52.306Z,1.48
2022-11-01T04:26:21.085Z,3.83
2022-11-01T04:28:57.348Z,2.45
2022-11-01T04:31:28.606Z,2.00
2022-11-01T04:33:57.000Z,2.65
2022-11-01T04:36:23.757Z,5.38
2022-11-01T04:38:57.581Z,5.03
2022-11-01T04:41:25.602Z,7.40
2022-11-01T04:43:56.742Z,3.92
2022-11-01T04:46:23.703Z,1.70
2022-11-01T04:48:50.404Z,2.67
2022-11-01T04:51:16.960Z,1.02
2022-11-01T04:53:43.423Z,3.25
2022-11-01T04:56:13.327Z,3.80
2022-11-01T04:58:43.159Z,1.40
2022-11-01T05:01:13.138Z,2.05
2022-11-01T05:03:39.666Z,1.25
2022-11-01T05:06:06.414Z,1.30
2022-11-01T05:08:33.016Z,3.17
2022-11-01T05:10:59.496Z,2.58
2022-11-01T05:13:25.956Z,3.60
2022-11-01T05:16:06.604Z,1.00
2022-11-01T05:18:40.815Z,4.03
2022-11-01T05:21:07.232Z,2.72
2022-11-01T05:23:33.582Z,2.50
2022-11-01T05:25:59.932Z,3.42
2022-11-01T05:28:26.416Z,2.85
2022-11-01T05:30:52.768Z,6.93
2022-11-01T05:33:19.188Z,2.05
2022-11-01T05:35:45.574Z,1.92
2022-11-01T05:38:11.975Z,2.13
2022-11-01T05:40:38.615Z,3.67
2022-11-01T05:43:05.253Z,1.63
2022-11-01T05:45:31.912Z,2.17
2022-11-01T05:48:02.637Z,2.22
2022-11-01T05:50:29.028Z,4.43
2022-11-01T05:52:55.479Z,2.33
2022-11-01T05:55:22.111Z,1.65
2022-11-01T06:00:19.874Z,2.20
2022-11-01T06:02:46.280Z,6.63
2022-11-01T06:05:12.679Z,2.22
2022-11-01T06:07:39.082Z,1.33
2022-11-01T06:10:05.943Z,1.20
2022-11-01T06:12:32.315Z,5.38
2022-11-01T06:14:58.884Z,1.38
2022-11-01T06:17:25.376Z,3.10
2022-11-01T06:19:51.757Z,1.80
2022-11-01T06:22:18.191Z,6.53
2022-11-01T06:24:44.563Z,4.38
2022-11-01T06:27:12.744Z,3.20
2022-11-01T06:29:39.443Z,1.58
2022-11-01T06:32:06.392Z,3.05
2022-11-01T06:34:32.864Z,1.40
2022-11-01T06:36:59.363Z,1.77
2022-11-01T06:39:26.844Z,4.30
2022-11-01T06:41:53.621Z,1.17
2022-11-01T06:44:20.043Z,2.92
2022-11-01T06:46:46.387Z,3.70
2022-11-01T06:49:16.423Z,2.65
2022-11-01T06:51:45.446Z,2.00
2022-11-01T06:54:11.836Z,2.65
2022-11-01T06:56:38.278Z,2.45
2022-11-01T06:59:04.812Z,5.30
2022-11-01T07:01:31.576Z,3.83
2022-11-01T07:03:58.156Z,4.07
2022-11-01T07:06:28.570Z,3.72
2022-11-01T07:08:55.480Z,2.72
2022-11-01T07:11:25.196Z,6.43
2022-11-01T07:13:53.897Z,2.70
2022-11-01T07:16:20.269Z,7.10
2022-11-01T07:18:46.700Z,2.42
2022-11-01T07:21:13.093Z,2.92
2022-11-01T07:23:39.580Z,2.30
2022-11-01T07:26:05.990Z,6.47
2022-11-01T07:28:32.379Z,2.97
2022-11-01T07:30:58.897Z,2.97
2022-11-01T07:33:25.262Z,2.90
2022-11-01T07:35:52.481Z,3.28
2022-11-01T07:38:19.688Z,5.25
2022-11-01T07:40:49.549Z,6.10
2022-11-01T07:43:17.438Z,4.57
2022-11-01T07:45:44.239Z,4.97
2022-11-01T07:48:12.931Z,4.43
2022-11-01T07:50:40.957Z,4.10
2022-11-01T07:53:15.584Z,4.53
2022-11-01T07:55:42.206Z,2.55
2022-11-01T07:58:09.773Z,5.82
2022-11-01T08:00:37.021Z,4.25
2022-11-01T08:03:15.494Z,5.05
2022-11-01T08:05:43.403Z,2.58
2022-11-01T08:08:10.674Z,4.90
2022-11-01T08:10:38.043Z,3.80
2022-11-01T08:13:13.881Z,5.45
2022-11-01T08:15:40.656Z,2.97
2022-11-01T08:18:07.209Z,3.75
2022-11-01T08:20:34.064Z,7.32
2022-11-01T08:23:00.795Z,4.93
2022-11-01T08:25:27.532Z,3.10
2022-11-01T08:27:53.892Z,4.30
2022-11-01T08:30:20.755Z,3.92
2022-11-01T08:32:47.344Z,2.67
2022-11-01T08:35:14.168Z,5.10
2022-11-01T08:37:53.669Z,3.20
2022-11-01T08:40:21.054Z,4.80
2022-11-01T08:42:47.776Z,5.85
2022-11-01T08:45:14.403Z,7.15
2022-11-01T08:47:41.514Z,3.40
2022-11-01T08:50:11.250Z,3.40
2022-11-01T08:52:38.385Z,2.92
2022-11-01T08:55:05.203Z,11.82
2022-11-01T08:57:31.645Z,2.17
2022-11-01T08:59:58.191Z,3.17
2022-11-01T09:02:24.811Z,4.57
2022-11-01T09:04:51.426Z,1.95
2022-11-01T09:07:18.956Z,5.07
2022-11-01T09:09:45.381Z,4.35
2022-11-01T09:12:14.621Z,5.60
2022-11-01T09:14:41.760Z,2.95
2022-11-01T09:17:08.504Z,4.15
2022-11-01T09:19:34.870Z,4.60
2022-11-01T09:22:01.230Z,4.70
2022-11-01T09:24:27.606Z,1.60
2022-11-01T09:26:53.980Z,5.47
2022-11-01T09:29:21.282Z,3.47
2022-11-01T09:31:51.780Z,5.47
2022-11-01T09:34:18.580Z,2.40
2022-11-01T09:36:45.081Z,8.68
2022-11-01T09:39:12.885Z,2.53
2022-11-01T09:41:45.334Z,1.77
2022-11-01T09:44:15.971Z,1.95
2022-11-01T09:46:55.373Z,2.70
2022-11-01T09:49:27.960Z,3.15
2022-11-01T09:51:55.117Z,4.72
2022-11-01T09:54:23.844Z,3.28
2022-11-01T09:56:51.112Z,1.95
2022-11-01T09:59:23.852Z,3.63
2022-11-01T10:02:21.917Z,3.95
2022-11-01T10:05:07.307Z,8.80
2022-11-01T10:07:33.611Z,3.95
2022-11-01T10:10:06.848Z,2.58
2022-11-01T10:12:54.997Z,6.57
2022-11-01T10:15:39.610Z,3.75
2022-11-01T10:18:21.453Z,5.80
2022-11-01T10:20:48.188Z,7.32
2022-11-01T10:23:17.042Z,3.38
2022-11-01T10:25:51.223Z,4.47
2022-11-01T10:28:34.469Z,3.17
2022-11-01T10:31:03.840Z,6.93
2022-11-01T10:33:45.086Z,3.33
2022-11-01T10:36:15.952Z,3.63
2022-11-01T10:39:37.281Z,3.60
2022-11-01T10:41:50.670Z,4.47
2022-11-01T10:44:19.965Z,3.33
2022-11-01T10:46:51.192Z,5.43
2022-11-01T10:49:52.965Z,3.38
2022-11-01T10:52:22.463Z,4.65
2022-11-01T10:54:51.431Z,3.42
2022-11-01T10:57:33.962Z,3.33
2022-11-01T11:00:05.124Z,4.37
2022-11-01T11:02:45.884Z,6.82
2022-11-01T11:05:16.084Z,3.83
2022-11-01T11:07:43.725Z,4.70
2022-11-01T11:10:23.970Z,4.53
2022-11-01T11:12:57.107Z,3.55
2022-11-01T11:15:35.770Z,6.07
2022-11-01T11:18:05.581Z,2.85
2022-11-01T11:20:34.153Z,4.70
2022-11-01T11:23:02.488Z,3.05
2022-11-01T11:25:36.072Z,2.72
2022-11-01T11:28:04.252Z,5.10
2022-11-01T11:30:35.404Z,5.25
2022-11-01T11:33:03.201Z,9.02
2022-11-01T11:35:32.592Z,5.88
2022-11-01T11:38:06.508Z,4.43
2022-11-01T11:40:39.071Z,6.00
2022-11-01T11:43:22.906Z,4.93
2022-11-01T11:46:21.629Z,5.57
2022-11-01T11:49:04.480Z,4.10
2022-11-01T11:51:34.603Z,4.65
2022-11-01T11:54:21.697Z,6.75
2022-11-01T11:56:51.887Z,5.47
2022-11-01T11:59:33.729Z,9.77
2022-11-01T12:02:06.032Z,2.95
2022-11-01T12:04:45.345Z,7.38
2022-11-01T12:07:34.247Z,5.88
2022-11-01T12:10:04.281Z,4.38
2022-11-01T12:12:40.433Z,6.05
2022-11-01T12:15:30.055Z,5.32
2022-11-01T12:17:57.693Z,6.13
2022-11-01T12:20:25.671Z,6.72
2022-11-01T12:23:39.350Z,6.05
2022-11-01T12:26:13.969Z,5.40
2022-11-01T12:28:47.864Z,4.13
2022-11-01T12:31:25.465Z,3.95
2022-11-01T12:34:35.068Z,5.75
2022-11-01T12:37:17.776Z,9.48
2022-11-01T12:40:00.094Z,7.78
2022-11-01T12:42:40.057Z,7.70
2022-11-01T12:45:22.322Z,4.78
2022-11-01T12:47:55.867Z,5.07
2022-11-01T12:50:26.616Z,6.38
2022-11-01T12:52:58.562Z,3.78
2022-11-01T12:55:30.760Z,3.92
2022-11-01T12:57:57.438Z,3.70
2022-11-01T13:00:32.109Z,7.35
2022-11-01T13:03:04.962Z,5.10
2022-11-01T13:05:48.615Z,5.25
2022-11-01T13:08:23.768Z,3.83
2022-11-01T13:10:50.367Z,7.95
2022-11-01T13:13:35.548Z,5.22
2022-11-01T13:16:12.877Z,5.60
2022-11-01T13:18:55.537Z,6.65
2022-11-01T13:21:30.770Z,4.47
2022-11-01T13:24:25.266Z,4.22
2022-11-01T13:27:01.648Z,4.20
2022-11-01T13:29:34.228Z,7.60
2022-11-01T13:32:14.757Z,9.45
2022-11-01T13:35:00.701Z,6.50
2022-11-01T13:37:40.540Z,3.00
2022-11-01T13:40:21.764Z,12.30
2022-11-01T13:43:02.268Z,8.48
2022-11-01T13:45:53.285Z,6.43
2022-11-01T13:49:04.849Z,4.07
2022-11-01T13:52:08.944Z,5.38
2022-11-01T13:54:55.286Z,6.40
2022-11-01T13:57:27.514Z,5.60
2022-11-01T13:59:59.858Z,5.07
2022-11-01T14:02:26.348Z,10.63
2022-11-01T14:05:13.552Z,8.60
2022-11-01T14:07:42.887Z,7.53
2022-11-01T14:10:18.930Z,6.68
2022-11-01T14:13:07.169Z,7.68
2022-11-01T14:15:58.347Z,7.78
2022-11-01T14:18:24.987Z,5.40
2022-11-01T14:20:53.359Z,5.18
2022-11-01T14:23:28.906Z,4.72
2022-11-01T14:26:20.344Z,8.25
2022-11-01T14:28:49.020Z,9.23
2022-11-01T14:31:18.289Z,14.27
2022-11-01T14:33:48.311Z,12.63
2022-11-01T14:36:17.781Z,7.57
2022-11-01T14:38:54.570Z,10.55
2022-11-01T14:41:24.364Z,4.80
2022-11-01T14:43:57.646Z,4.30
2022-11-01T14:46:27.549Z,5.97
2022-11-01T14:49:14.717Z,5.68
2022-11-01T14:52:02.664Z,5.32
2022-11-01T14:54:44.280Z,7.40
2022-11-01T14:57:30.484Z,4.85
2022-11-01T14:59:58.350Z,7.68
2022-11-01T15:02:33.334Z,5.53
2022-11-01T15:05:01.617Z,4.97
2022-11-01T15:07:31.375Z,5.22
2022-11-01T15:10:07.559Z,6.43
2022-11-01T15:12:47.364Z,9.25
2022-11-01T15:15:19.032Z,4.60
2022-11-01T15:17:57.635Z,3.50
2022-11-01T15:20:34.935Z,5.93
2022-11-01T15:23:07.022Z,4.70
2022-11-01T15:25:33.531Z,6.50
2022-11-01T15:27:59.933Z,7.95
2022-11-01T15:30:30.245Z,6.40
2022-11-01T15:33:25.882Z,4.63
2022-11-01T15:35:58.040Z,5.68
2022-11-01T15:38:24.573Z,4.97
2022-11-01T15:40:52.124Z,8.95
2022-11-01T15:43:29.350Z,6.05
2022-11-01T15:46:01.295Z,5.30
2022-11-01T15:48:32.619Z,6.80
2022-11-01T15:51:05.863Z,6.55
2022-11-01T15:53:34.843Z,9.77
2022-11-01T15:56:06.105Z,7.03
2022-11-01T16:01:26.328Z,6.53
2022-11-01T16:04:04.555Z,7.10
2022-11-01T16:06:53.302Z,7.03
2022-11-01T16:09:31.919Z,5.68
2022-11-01T16:12:02.656Z,5.75
2022-11-01T16:14:37.229Z,13.25
2022-11-01T16:17:06.959Z,7.40
2022-11-01T16:19:51.395Z,6.35
2022-11-01T16:22:31.207Z,6.65
2022-11-01T16:25:12.196Z,8.48
2022-11-01T16:27:53.986Z,6.47
2022-11-01T16:30:36.546Z,10.32
2022-11-01T16:33:17.019Z,6.78
2022-11-01T16:35:44.973Z,3.67
2022-11-01T16:38:43.056Z,6.57
2022-11-01T16:41:20.238Z,11.02
2022-11-01T16:43:57.615Z,7.25
2022-11-01T16:46:26.530Z,8.18
2022-11-01T16:48:59.295Z,6.10
2022-11-01T16:51:28.768Z,7.75
2022-11-01T16:54:00.633Z,4.75
2022-11-01T16:56:49.362Z,5.15
2022-11-01T16:59:33.840Z,6.25
2022-11-01T17:02:01.688Z,5.00
2022-11-01T17:04:28.655Z,4.95
2022-11-01T17:06:58.238Z,3.95
2022-11-01T17:09:28.010Z,5.85
2022-11-01T17:11:54.404Z,6.95
2022-11-01T17:14:22.058Z,3.65
2022-11-01T17:16:50.232Z,4.70
2022-11-01T17:19:18.509Z,5.93
2022-11-01T17:21:45.984Z,6.32
2022-11-01T17:24:18.168Z,5.50
2022-11-01T17:26:44.620Z,7.35
2022-11-01T17:29:13.783Z,3.60
2022-11-01T17:31:40.526Z,5.68
2022-11-01T17:34:06.953Z,6.07
2022-11-01T17:36:35.536Z,4.25
2022-11-01T17:39:03.027Z,5.18
2022-11-01T17:41:29.436Z,8.93
2022-11-01T17:43:55.981Z,5.35
2022-11-01T17:46:25.254Z,5.22
2022-11-01T17:48:51.735Z,5.60
2022-11-01T17:51:18.218Z,5.88
2022-11-01T17:53:44.624Z,3.50
2022-11-01T17:56:11.186Z,5.72
2022-11-01T17:58:37.707Z,6.43
2022-11-01T18:01:04.440Z,5.78
2022-11-01T18:03:31.733Z,7.10
2022-11-01T18:05:59.199Z,3.67
2022-11-01T18:08:27.677Z,6.38
2022-11-01T18:10:56.780Z,8.00
2022-11-01T18:14:03.744Z,10.93
2022-11-01T18:16:46.197Z,6.20
2022-11-01T18:19:53.403Z,5.60
2022-11-01T18:22:35.636Z,5.93
2022-11-01T18:25:11.487Z,6.38
2022-11-01T18:27:38.732Z,6.75
2022-11-01T18:30:13.451Z,10.98
2022-11-01T18:32:47.578Z,11.32
2022-11-01T18:35:31.782Z,9.38
2022-11-01T18:38:26.255Z,9.15
2022-11-01T18:41:02.207Z,13.15
2022-11-01T18:43:32.379Z,12.68
2022-11-01T18:48:47.794Z,11.07
2022-11-01T18:51:26.466Z,9.52
2022-11-01T18:53:56.391Z,8.90
2022-11-01T18:56:25.648Z,5.80
2022-11-01T18:58:53.850Z,7.57
2022-11-01T19:01:31.174Z,6.03
2022-11-01T19:04:01.646Z,10.70
2022-11-01T19:06:31.374Z,11.98
2022-11-01T19:09:01.262Z,11.32
2022-11-01T19:11:29.698Z,10.85
2022-11-01T19:13:59.778Z,12.20
2022-11-01T19:16:26.228Z,8.57
2022-11-01T19:18:52.681Z,8.20
2022-11-01T19:21:20.866Z,8.30
2022-11-01T19:23:50.408Z,4.82
2022-11-01T19:26:28.249Z,7.80
2022-11-01T19:28:54.723Z,11.32
2022-11-01T19:31:23.771Z,11.68
2022-11-01T19:33:55.369Z,14.02
2022-11-01T19:36:24.381Z,10.38
2022-11-01T19:38:53.000Z,8.13
2022-11-01T19:41:25.141Z,9.77
2022-11-01T19:43:51.621Z,7.53
2022-11-01T19:46:20.981Z,7.75
2022-11-01T19:48:47.675Z,11.20
2022-11-01T19:51:21.442Z,10.57
2022-11-01T19:53:49.327Z,9.68
2022-11-01T19:56:23.685Z,6.95
2022-11-01T19:59:00.594Z,6.00
2022-11-01T20:01:42.192Z,10.73
2022-11-01T20:04:28.004Z,10.45
2022-11-01T20:06:57.723Z,12.40
2022-11-01T20:09:27.327Z,13.02
2022-11-01T20:11:54.462Z,11.73
2022-11-01T20:14:20.885Z,12.45
2022-11-01T20:16:47.508Z,7.90
2022-11-01T20:19:17.423Z,6.18
2022-11-01T20:21:44.656Z,4.10
2022-11-01T20:24:11.350Z,5.07
2022-11-01T20:26:38.041Z,8.35
2022-11-01T20:29:04.460Z,5.38
2022-11-01T20:31:31.707Z,6.60
2022-11-01T20:33:58.774Z,7.47
2022-11-01T20:36:25.278Z,10.52
2022-11-01T20:38:51.913Z,6.15
2022-11-01T20:41:19.169Z,6.75
2022-11-01T20:43:45.652Z,4.35
2022-11-01T20:46:12.644Z,6.47
2022-11-01T20:48:39.115Z,4.15
2022-11-01T20:51:06.145Z,6.68
2022-11-01T20:53:33.082Z,4.28
2022-11-01T20:56:00.412Z,5.75
2022-11-01T20:58:27.028Z,5.22
2022-11-01T21:00:53.927Z,7.10
2022-11-01T21:03:21.482Z,6.28
2022-11-01T21:05:49.506Z,5.25
2022-11-01T21:08:24.572Z,5.18
2022-11-01T21:11:02.615Z,4.88
2022-11-01T21:13:31.709Z,7.28
2022-11-01T21:16:00.000Z,11.65
2022-11-01T21:18:38.460Z,12.05
2022-11-01T21:21:32.602Z,6.68
2022-11-01T21:24:00.852Z,5.35
2022-11-01T21:26:31.861Z,6.60
2022-11-01T21:29:18.004Z,5.10
2022-11-01T21:31:44.548Z,9.50
2022-11-01T21:34:10.979Z,6.35
2022-11-01T21:36:41.857Z,9.15
2022-11-01T21:39:15.270Z,8.13
2022-11-01T21:41:44.746Z,6.65
2022-11-01T21:44:28.345Z,7.70
2022-11-01T21:47:11.780Z,4.97
2022-11-01T21:52:07.371Z,15.93
2022-11-01T21:54:36.878Z,6.40
2022-11-01T21:57:05.692Z,4.88
2022-11-01T21:59:32.869Z,3.72
2022-11-01T22:02:03.019Z,5.93
2022-11-01T22:04:31.051Z,5.28
2022-11-01T22:07:02.661Z,2.97
2022-11-01T22:09:30.177Z,3.63
2022-11-01T22:11:56.887Z,5.45
2022-11-01T22:14:24.345Z,5.45
2022-11-01T22:16:51.379Z,3.40
2022-11-01T22:19:17.761Z,6.50
2022-11-01T22:24:15.566Z,4.97
2022-11-01T22:26:41.993Z,6.45
2022-11-01T22:29:08.502Z,2.63
2022-11-01T22:31:35.155Z,3.67
2022-11-01T22:34:02.180Z,5.45
2022-11-01T22:36:30.810Z,2.95
2022-11-01T22:39:06.897Z,3.50
2022-11-01T22:41:35.009Z,4.65
2022-11-01T22:44:17.409Z,3.17
2022-11-01T22:46:56.827Z,3.13
2022-11-01T22:49:40.375Z,2.28
2022-11-01T22:52:47.086Z,7.93
2022-11-01T22:55:27.317Z,3.80
2022-11-01T22:58:14.362Z,3.38
2022-11-01T23:00:40.739Z,2.88
2022-11-01T23:03:23.426Z,4.90
2022-11-01T23:05:54.947Z,3.47
2022-11-01T23:08:29.867Z,3.60
2022-11-01T23:10:57.201Z,4.13
2022-11-01T23:13:49.102Z,2.03
2022-11-01T23:16:39.793Z,4.38
2022-11-01T23:19:11.004Z,4.30
2022-11-01T23:21:37.547Z,2.20
2022-11-01T23:24:04.068Z,2.15
2022-11-01T23:26:30.957Z,2.45
2022-11-01T23:28:58.389Z,2.78
2022-11-01T23:31:28.052Z,4.75
2022-11-01T23:33:55.141Z,2.92
2022-11-01T23:36:31.505Z,2.17
2022-11-01T23:39:08.899Z,3.70
2022-11-01T23:41:44.083Z,1.42
2022-11-01T23:44:33.185Z,2.90
2022-11-01T23:47:20.064Z,1.70
2022-11-01T23:49:52.227Z,4.13
2022-11-01T23:52:35.408Z,3.22
2022-11-01T23:55:03.368Z,1.75
2022-11-01T23:57:30.262Z,1.98
2022-11-01T23:59:56.798Z,1.63
